ADDS TAF Data INFO
IDs: Format: Raw Decoded Include METARs

Data at: 2043 UTC 15 Aug 2018

KABY 151722Z 1518/1618 11003KT P6SM SCT020
  FM152000 19006KT P6SM VCTS BKN040CB
  TEMPO 1521/1524 VRB15G25KT 3SM TSRA BKN025CB
  FM160100 17005KT P6SM BKN250